sensor_id;sensor_type;location;lat;lon;timestamp;temperature;humidity
13848;DHT22;6994;49.752;6.094;2022-09-09T00:02:24;15.60;99.90
13848;DHT22;6994;49.752;6.094;2022-09-09T00:05:17;15.60;99.90
13848;DHT22;6994;49.752;6.094;2022-09-09T00:07:47;15.60;99.90
13848;DHT22;6994;49.752;6.094;2022-09-09T00:10:28;15.60;99.90
13848;DHT22;6994;49.752;6.094;2022-09-09T00:13:14;15.50;99.90
13848;DHT22;6994;49.752;6.094;2022-09-09T00:21:16;15.60;99.90
13848;DHT22;6994;49.752;6.094;2022-09-09T00:23:55;15.60;99.90
13848;DHT22;6994;49.752;6.094;2022-09-09T00:29:00;15.80;99.90
13848;DHT22;6994;49.752;6.094;2022-09-09T00:31:18;15.80;99.90
13848;DHT22;6994;49.752;6.094;2022-09-09T00:33:43;15.70;99.90
13848;DHT22;6994;49.752;6.094;2022-09-09T00:36:12;15.90;99.90
13848;DHT22;6994;49.752;6.094;2022-09-09T00:38:38;15.90;99.90
13848;DHT22;6994;49.752;6.094;2022-09-09T00:41:11;15.80;99.90
13848;DHT22;6994;49.752;6.094;2022-09-09T00:43:39;15.60;99.90
13848;DHT22;6994;49.752;6.094;2022-09-09T00:46:29;15.50;99.90
13848;DHT22;6994;49.752;6.094;2022-09-09T00:49:04;15.50;99.90
13848;DHT22;6994;49.752;6.094;2022-09-09T00:54:20;15.50;99.90
13848;DHT22;6994;49.752;6.094;2022-09-09T01:02:26;15.90;99.90
13848;DHT22;6994;49.752;6.094;2022-09-09T01:04:50;15.80;99.90
13848;DHT22;6994;49.752;6.094;2022-09-09T01:07:18;15.60;99.90
13848;DHT22;6994;49.752;6.094;2022-09-09T01:09:55;15.50;99.90
13848;DHT22;6994;49.752;6.094;2022-09-09T01:12:40;15.40;99.90
13848;DHT22;6994;49.752;6.094;2022-09-09T01:15:12;15.40;99.90
13848;DHT22;6994;49.752;6.094;2022-09-09T01:20:21;15.10;99.90
13848;DHT22;6994;49.752;6.094;2022-09-09T01:23:09;15.10;99.90
13848;DHT22;6994;49.752;6.094;2022-09-09T01:28:12;15.10;99.90
13848;DHT22;6994;49.752;6.094;2022-09-09T01:30:39;15.10;99.90
13848;DHT22;6994;49.752;6.094;2022-09-09T01:33:07;15.00;99.90
13848;DHT22;6994;49.752;6.094;2022-09-09T01:38:12;15.10;99.90
13848;DHT22;6994;49.752;6.094;2022-09-09T01:40:40;15.10;99.90
13848;DHT22;6994;49.752;6.094;2022-09-09T01:43:07;15.20;99.90
13848;DHT22;6994;49.752;6.094;2022-09-09T01:45:34;15.20;99.90
13848;DHT22;6994;49.752;6.094;2022-09-09T01:48:02;15.30;99.90
13848;DHT22;6994;49.752;6.094;2022-09-09T01:50:28;15.30;99.90
13848;DHT22;6994;49.752;6.094;2022-09-09T01:52:59;15.50;99.90
13848;DHT22;6994;49.752;6.094;2022-09-09T01:55:34;15.60;99.90
13848;DHT22;6994;49.752;6.094;2022-09-09T01:58:17;15.60;99.90
13848;DHT22;6994;49.752;6.094;2022-09-09T02:00:34;15.80;99.90
13848;DHT22;6994;49.752;6.094;2022-09-09T02:03:11;15.80;99.90
13848;DHT22;6994;49.752;6.094;2022-09-09T02:05:39;15.80;99.90
13848;DHT22;6994;49.752;6.094;2022-09-09T02:08:07;15.70;99.90
13848;DHT22;6994;49.752;6.094;2022-09-09T02:10:37;15.70;99.90
13848;DHT22;6994;49.752;6.094;2022-09-09T02:13:13;15.60;99.90
13848;DHT22;6994;49.752;6.094;2022-09-09T02:18:13;15.70;99.90
13848;DHT22;6994;49.752;6.094;2022-09-09T02:20:40;16.00;99.90
13848;DHT22;6994;49.752;6.094;2022-09-09T02:23:07;16.00;99.90
13848;DHT22;6994;49.752;6.094;2022-09-09T02:25:34;16.00;99.90
13848;DHT22;6994;49.752;6.094;2022-09-09T02:28:03;15.90;99.90
13848;DHT22;6994;49.752;6.094;2022-09-09T02:30:30;15.90;99.90
13848;DHT22;6994;49.752;6.094;2022-09-09T02:32:58;15.90;99.90
13848;DHT22;6994;49.752;6.094;2022-09-09T02:35:26;15.80;99.90
13848;DHT22;6994;49.752;6.094;2022-09-09T02:37:54;15.80;99.90
13848;DHT22;6994;49.752;6.094;2022-09-09T02:40:21;15.80;99.90
13848;DHT22;6994;49.752;6.094;2022-09-09T02:42:48;15.80;99.90
13848;DHT22;6994;49.752;6.094;2022-09-09T02:45:16;15.80;99.90
13848;DHT22;6994;49.752;6.094;2022-09-09T02:50:34;15.80;99.90
13848;DHT22;6994;49.752;6.094;2022-09-09T02:53:19;15.80;99.90
13848;DHT22;6994;49.752;6.094;2022-09-09T02:56:01;15.80;99.90
13848;DHT22;6994;49.752;6.094;2022-09-09T02:58:22;15.80;99.90
13848;DHT22;6994;49.752;6.094;2022-09-09T03:00:50;15.70;99.90
13848;DHT22;6994;49.752;6.094;2022-09-09T03:03:16;15.70;99.90
13848;DHT22;6994;49.752;6.094;2022-09-09T03:05:43;15.90;99.90
13848;DHT22;6994;49.752;6.094;2022-09-09T03:08:11;16.00;99.90
13848;DHT22;6994;49.752;6.094;2022-09-09T03:10:39;16.00;99.90
13848;DHT22;6994;49.752;6.094;2022-09-09T03:13:06;16.00;99.90
13848;DHT22;6994;49.752;6.094;2022-09-09T03:15:34;16.00;99.90
13848;DHT22;6994;49.752;6.094;2022-09-09T03:18:02;16.00;99.90
13848;DHT22;6994;49.752;6.094;2022-09-09T03:20:30;16.00;99.90
13848;DHT22;6994;49.752;6.094;2022-09-09T03:22:59;16.00;99.90
13848;DHT22;6994;49.752;6.094;2022-09-09T03:25:26;16.00;99.90
13848;DHT22;6994;49.752;6.094;2022-09-09T03:27:54;16.00;99.90
13848;DHT22;6994;49.752;6.094;2022-09-09T03:30:23;15.90;99.90
13848;DHT22;6994;49.752;6.094;2022-09-09T03:32:50;15.90;99.90
13848;DHT22;6994;49.752;6.094;2022-09-09T03:35:17;15.90;99.90
13848;DHT22;6994;49.752;6.094;2022-09-09T03:37:44;15.90;99.90
13848;DHT22;6994;49.752;6.094;2022-09-09T03:40:11;15.90;99.90
13848;DHT22;6994;49.752;6.094;2022-09-09T03:42:38;15.90;99.90
13848;DHT22;6994;49.752;6.094;2022-09-09T03:45:06;16.10;99.90
13848;DHT22;6994;49.752;6.094;2022-09-09T03:47:33;16.10;99.90
13848;DHT22;6994;49.752;6.094;2022-09-09T03:50:00;16.10;99.90
13848;DHT22;6994;49.752;6.094;2022-09-09T03:52:27;16.20;99.90
13848;DHT22;6994;49.752;6.094;2022-09-09T03:54:55;16.30;99.90
13848;DHT22;6994;49.752;6.094;2022-09-09T03:57:22;16.40;99.90
13848;DHT22;6994;49.752;6.094;2022-09-09T03:59:50;16.40;99.90
13848;DHT22;6994;49.752;6.094;2022-09-09T04:02:18;16.30;99.90
13848;DHT22;6994;49.752;6.094;2022-09-09T04:04:46;16.20;99.90
13848;DHT22;6994;49.752;6.094;2022-09-09T04:07:14;16.20;99.90
13848;DHT22;6994;49.752;6.094;2022-09-09T04:09:42;16.10;99.90
13848;DHT22;6994;49.752;6.094;2022-09-09T04:12:10;16.10;99.90
13848;DHT22;6994;49.752;6.094;2022-09-09T04:14:38;16.10;99.90
13848;DHT22;6994;49.752;6.094;2022-09-09T04:17:05;16.10;99.90
13848;DHT22;6994;49.752;6.094;2022-09-09T04:19:33;16.10;99.90
13848;DHT22;6994;49.752;6.094;2022-09-09T04:22:01;16.10;99.90
13848;DHT22;6994;49.752;6.094;2022-09-09T04:24:28;16.10;99.90
13848;DHT22;6994;49.752;6.094;2022-09-09T04:26:55;16.10;99.90
13848;DHT22;6994;49.752;6.094;2022-09-09T04:29:22;16.10;99.90
13848;DHT22;6994;49.752;6.094;2022-09-09T04:31:49;16.00;99.90
13848;DHT22;6994;49.752;6.094;2022-09-09T04:34:17;16.00;99.90
13848;DHT22;6994;49.752;6.094;2022-09-09T04:36:44;16.00;99.90
13848;DHT22;6994;49.752;6.094;2022-09-09T04:39:11;16.00;99.90
13848;DHT22;6994;49.752;6.094;2022-09-09T04:41:38;16.10;99.90
13848;DHT22;6994;49.752;6.094;2022-09-09T04:44:06;16.10;99.90
13848;DHT22;6994;49.752;6.094;2022-09-09T04:46:34;16.10;99.90
13848;DHT22;6994;49.752;6.094;2022-09-09T04:49:02;16.10;99.90
13848;DHT22;6994;49.752;6.094;2022-09-09T04:51:30;16.10;99.90
13848;DHT22;6994;49.752;6.094;2022-09-09T04:53:58;16.10;99.90
13848;DHT22;6994;49.752;6.094;2022-09-09T04:56:26;16.10;99.90
13848;DHT22;6994;49.752;6.094;2022-09-09T04:58:54;16.10;99.90
13848;DHT22;6994;49.752;6.094;2022-09-09T05:01:21;16.10;99.90
13848;DHT22;6994;49.752;6.094;2022-09-09T05:03:49;16.10;99.90
13848;DHT22;6994;49.752;6.094;2022-09-09T05:06:16;16.10;99.90
13848;DHT22;6994;49.752;6.094;2022-09-09T05:08:43;16.10;99.90
13848;DHT22;6994;49.752;6.094;2022-09-09T05:13:43;16.20;99.90
13848;DHT22;6994;49.752;6.094;2022-09-09T05:16:11;16.20;99.90
13848;DHT22;6994;49.752;6.094;2022-09-09T05:18:38;16.20;99.90
13848;DHT22;6994;49.752;6.094;2022-09-09T05:21:05;16.20;99.90
13848;DHT22;6994;49.752;6.094;2022-09-09T05:23:35;16.30;99.90
13848;DHT22;6994;49.752;6.094;2022-09-09T05:26:03;16.60;99.90
13848;DHT22;6994;49.752;6.094;2022-09-09T05:28:33;16.60;99.90
13848;DHT22;6994;49.752;6.094;2022-09-09T05:30:59;16.60;99.90
13848;DHT22;6994;49.752;6.094;2022-09-09T05:33:27;16.60;99.90
13848;DHT22;6994;49.752;6.094;2022-09-09T05:35:58;16.50;99.90
13848;DHT22;6994;49.752;6.094;2022-09-09T05:38:25;16.50;99.90
13848;DHT22;6994;49.752;6.094;2022-09-09T05:40:53;16.50;99.90
13848;DHT22;6994;49.752;6.094;2022-09-09T05:43:19;16.50;99.90
13848;DHT22;6994;49.752;6.094;2022-09-09T05:45:47;16.50;99.90
13848;DHT22;6994;49.752;6.094;2022-09-09T05:48:14;16.50;99.90
13848;DHT22;6994;49.752;6.094;2022-09-09T05:50:42;16.50;99.90
13848;DHT22;6994;49.752;6.094;2022-09-09T05:53:10;16.50;99.90
13848;DHT22;6994;49.752;6.094;2022-09-09T05:55:38;16.50;99.90
13848;DHT22;6994;49.752;6.094;2022-09-09T05:58:06;16.50;99.90
13848;DHT22;6994;49.752;6.094;2022-09-09T06:00:34;16.50;99.90
13848;DHT22;6994;49.752;6.094;2022-09-09T06:03:02;16.50;99.90
13848;DHT22;6994;49.752;6.094;2022-09-09T06:05:30;16.50;99.90
13848;DHT22;6994;49.752;6.094;2022-09-09T06:07:58;16.40;99.90
13848;DHT22;6994;49.752;6.094;2022-09-09T06:10:25;16.40;99.90
13848;DHT22;6994;49.752;6.094;2022-09-09T06:12:52;16.40;99.90
13848;DHT22;6994;49.752;6.094;2022-09-09T06:15:19;16.40;99.90
13848;DHT22;6994;49.752;6.094;2022-09-09T06:17:46;16.50;99.90
13848;DHT22;6994;49.752;6.094;2022-09-09T06:20:14;16.60;99.90
13848;DHT22;6994;49.752;6.094;2022-09-09T06:22:41;16.80;99.90
13848;DHT22;6994;49.752;6.094;2022-09-09T06:25:08;16.80;99.90
13848;DHT22;6994;49.752;6.094;2022-09-09T06:27:35;16.80;99.90
13848;DHT22;6994;49.752;6.094;2022-09-09T06:30:02;16.80;99.90
13848;DHT22;6994;49.752;6.094;2022-09-09T06:32:30;16.80;99.90
13848;DHT22;6994;49.752;6.094;2022-09-09T06:34:57;17.00;99.90
13848;DHT22;6994;49.752;6.094;2022-09-09T06:37:24;17.10;99.90
13848;DHT22;6994;49.752;6.094;2022-09-09T06:39:51;17.10;99.90
13848;DHT22;6994;49.752;6.094;2022-09-09T06:42:18;17.00;99.90
13848;DHT22;6994;49.752;6.094;2022-09-09T06:44:46;17.00;99.90
13848;DHT22;6994;49.752;6.094;2022-09-09T06:47:13;17.00;99.90
13848;DHT22;6994;49.752;6.094;2022-09-09T06:49:40;17.20;99.90
13848;DHT22;6994;49.752;6.094;2022-09-09T06:52:07;17.30;99.90
13848;DHT22;6994;49.752;6.094;2022-09-09T06:54:35;17.30;99.90
13848;DHT22;6994;49.752;6.094;2022-09-09T06:57:03;17.30;99.90
13848;DHT22;6994;49.752;6.094;2022-09-09T06:59:31;17.20;99.90
13848;DHT22;6994;49.752;6.094;2022-09-09T07:01:59;17.20;99.90
13848;DHT22;6994;49.752;6.094;2022-09-09T07:04:27;17.20;99.90
13848;DHT22;6994;49.752;6.094;2022-09-09T07:06:55;17.20;99.90
13848;DHT22;6994;49.752;6.094;2022-09-09T07:09:23;17.10;99.90
13848;DHT22;6994;49.752;6.094;2022-09-09T07:11:51;17.20;99.90
13848;DHT22;6994;49.752;6.094;2022-09-09T07:14:19;17.20;99.90
13848;DHT22;6994;49.752;6.094;2022-09-09T07:16:47;17.20;99.90
13848;DHT22;6994;49.752;6.094;2022-09-09T07:19:14;17.20;99.90
13848;DHT22;6994;49.752;6.094;2022-09-09T07:21:42;17.20;99.90
13848;DHT22;6994;49.752;6.094;2022-09-09T07:24:09;17.30;99.90
13848;DHT22;6994;49.752;6.094;2022-09-09T07:26:36;17.30;99.90
13848;DHT22;6994;49.752;6.094;2022-09-09T07:29:03;17.40;99.90
13848;DHT22;6994;49.752;6.094;2022-09-09T07:31:34;17.70;99.90
13848;DHT22;6994;49.752;6.094;2022-09-09T07:34:00;17.80;99.90
13848;DHT22;6994;49.752;6.094;2022-09-09T07:36:31;17.70;99.90
13848;DHT22;6994;49.752;6.094;2022-09-09T07:38:59;17.60;99.90
13848;DHT22;6994;49.752;6.094;2022-09-09T07:41:29;17.80;99.90
13848;DHT22;6994;49.752;6.094;2022-09-09T07:43:52;17.90;99.90
13848;DHT22;6994;49.752;6.094;2022-09-09T07:46:20;18.10;99.90
13848;DHT22;6994;49.752;6.094;2022-09-09T07:48:53;18.00;99.90
13848;DHT22;6994;49.752;6.094;2022-09-09T07:51:20;18.00;99.90
13848;DHT22;6994;49.752;6.094;2022-09-09T07:53:46;17.90;99.90
13848;DHT22;6994;49.752;6.094;2022-09-09T07:56:15;18.00;99.90
13848;DHT22;6994;49.752;6.094;2022-09-09T07:58:44;17.90;99.90
13848;DHT22;6994;49.752;6.094;2022-09-09T08:01:11;17.90;99.90
13848;DHT22;6994;49.752;6.094;2022-09-09T08:03:38;17.80;99.90
13848;DHT22;6994;49.752;6.094;2022-09-09T08:06:07;17.80;99.90
13848;DHT22;6994;49.752;6.094;2022-09-09T08:08:34;17.70;99.90
13848;DHT22;6994;49.752;6.094;2022-09-09T08:11:07;17.70;99.90
13848;DHT22;6994;49.752;6.094;2022-09-09T08:13:34;17.70;99.90
13848;DHT22;6994;49.752;6.094;2022-09-09T08:16:10;17.60;99.90
13848;DHT22;6994;49.752;6.094;2022-09-09T08:18:34;17.80;99.90
13848;DHT22;6994;49.752;6.094;2022-09-09T08:21:12;18.10;99.90
13848;DHT22;6994;49.752;6.094;2022-09-09T08:23:39;18.10;99.90
13848;DHT22;6994;49.752;6.094;2022-09-09T08:26:06;18.40;99.90
13848;DHT22;6994;49.752;6.094;2022-09-09T08:31:15;18.70;99.90
13848;DHT22;6994;49.752;6.094;2022-09-09T08:33:41;18.60;99.90
13848;DHT22;6994;49.752;6.094;2022-09-09T08:36:09;18.50;99.90
13848;DHT22;6994;49.752;6.094;2022-09-09T08:38:35;18.50;99.90
13848;DHT22;6994;49.752;6.094;2022-09-09T08:43:42;18.70;99.90
13848;DHT22;6994;49.752;6.094;2022-09-09T08:46:14;18.70;99.90
13848;DHT22;6994;49.752;6.094;2022-09-09T08:48:56;19.00;99.90
13848;DHT22;6994;49.752;6.094;2022-09-09T08:51:17;19.00;99.90
13848;DHT22;6994;49.752;6.094;2022-09-09T08:53:46;19.00;99.90
13848;DHT22;6994;49.752;6.094;2022-09-09T08:56:19;19.00;99.90
13848;DHT22;6994;49.752;6.094;2022-09-09T08:58:48;19.50;99.90
13848;DHT22;6994;49.752;6.094;2022-09-09T09:01:22;19.70;99.90
13848;DHT22;6994;49.752;6.094;2022-09-09T09:03:56;19.70;99.90
13848;DHT22;6994;49.752;6.094;2022-09-09T09:09:06;19.50;99.90
13848;DHT22;6994;49.752;6.094;2022-09-09T09:11:36;19.30;99.90
13848;DHT22;6994;49.752;6.094;2022-09-09T09:14:15;19.40;99.90
13848;DHT22;6994;49.752;6.094;2022-09-09T09:17:01;19.30;99.90
13848;DHT22;6994;49.752;6.094;2022-09-09T09:19:28;19.20;99.90
13848;DHT22;6994;49.752;6.094;2022-09-09T09:22:10;19.10;99.90
13848;DHT22;6994;49.752;6.094;2022-09-09T09:24:48;19.00;99.90
13848;DHT22;6994;49.752;6.094;2022-09-09T09:27:16;19.00;99.90
13848;DHT22;6994;49.752;6.094;2022-09-09T09:29:43;18.90;99.90
13848;DHT22;6994;49.752;6.094;2022-09-09T09:32:14;18.80;99.90
13848;DHT22;6994;49.752;6.094;2022-09-09T09:34:40;18.80;99.90
13848;DHT22;6994;49.752;6.094;2022-09-09T09:37:17;18.80;99.90
13848;DHT22;6994;49.752;6.094;2022-09-09T09:39:44;18.70;99.90
13848;DHT22;6994;49.752;6.094;2022-09-09T09:42:12;18.60;99.90
13848;DHT22;6994;49.752;6.094;2022-09-09T09:44:42;18.60;99.90
13848;DHT22;6994;49.752;6.094;2022-09-09T09:47:19;18.60;99.90
13848;DHT22;6994;49.752;6.094;2022-09-09T09:49:54;18.60;99.90
13848;DHT22;6994;49.752;6.094;2022-09-09T09:52:27;18.70;99.90
13848;DHT22;6994;49.752;6.094;2022-09-09T09:54:54;18.80;99.90
13848;DHT22;6994;49.752;6.094;2022-09-09T09:57:28;19.00;99.90
13848;DHT22;6994;49.752;6.094;2022-09-09T10:00:17;19.00;99.90
13848;DHT22;6994;49.752;6.094;2022-09-09T10:02:43;19.10;99.90
13848;DHT22;6994;49.752;6.094;2022-09-09T10:05:18;19.20;99.90
13848;DHT22;6994;49.752;6.094;2022-09-09T10:07:43;19.50;99.90
13848;DHT22;6994;49.752;6.094;2022-09-09T10:10:31;19.60;99.90
13848;DHT22;6994;49.752;6.094;2022-09-09T10:13:00;19.90;99.90
13848;DHT22;6994;49.752;6.094;2022-09-09T10:15:36;20.10;99.90
13848;DHT22;6994;49.752;6.094;2022-09-09T10:18:13;20.10;99.90
13848;DHT22;6994;49.752;6.094;2022-09-09T10:20:55;20.10;99.90
13848;DHT22;6994;49.752;6.094;2022-09-09T10:29:24;19.90;99.90
13848;DHT22;6994;49.752;6.094;2022-09-09T10:34:49;20.40;99.90
13848;DHT22;6994;49.752;6.094;2022-09-09T10:39:42;20.90;99.90
13848;DHT22;6994;49.752;6.094;2022-09-09T10:42:09;21.40;99.90
13848;DHT22;6994;49.752;6.094;2022-09-09T10:44:55;22.10;99.90
13848;DHT22;6994;49.752;6.094;2022-09-09T10:47:24;22.20;99.90
13848;DHT22;6994;49.752;6.094;2022-09-09T10:50:05;22.10;99.90
13848;DHT22;6994;49.752;6.094;2022-09-09T10:55:13;21.60;99.90
13848;DHT22;6994;49.752;6.094;2022-09-09T10:57:39;21.40;99.90
13848;DHT22;6994;49.752;6.094;2022-09-09T11:00:05;21.20;99.90
13848;DHT22;6994;49.752;6.094;2022-09-09T11:02:32;21.10;99.90
13848;DHT22;6994;49.752;6.094;2022-09-09T11:05:18;21.10;99.90
13848;DHT22;6994;49.752;6.094;2022-09-09T11:07:52;21.20;99.90
13848;DHT22;6994;49.752;6.094;2022-09-09T11:13:18;21.10;99.90
13848;DHT22;6994;49.752;6.094;2022-09-09T11:15:52;21.20;99.90
13848;DHT22;6994;49.752;6.094;2022-09-09T11:18:20;21.20;99.90
13848;DHT22;6994;49.752;6.094;2022-09-09T11:20:47;21.60;99.90
13848;DHT22;6994;49.752;6.094;2022-09-09T11:23:16;22.10;99.90
13848;DHT22;6994;49.752;6.094;2022-09-09T11:25:43;22.20;99.90
13848;DHT22;6994;49.752;6.094;2022-09-09T11:28:19;22.40;99.90
13848;DHT22;6994;49.752;6.094;2022-09-09T11:44:41;25.50;99.60
13848;DHT22;6994;49.752;6.094;2022-09-09T11:47:27;25.30;99.20
13848;DHT22;6994;49.752;6.094;2022-09-09T11:49:54;25.30;97.90
13848;DHT22;6994;49.752;6.094;2022-09-09T11:52:36;24.20;99.90
13848;DHT22;6994;49.752;6.094;2022-09-09T11:54:54;24.10;99.90
13848;DHT22;6994;49.752;6.094;2022-09-09T11:57:32;24.50;99.90
13848;DHT22;6994;49.752;6.094;2022-09-09T11:59:58;24.50;99.90
13848;DHT22;6994;49.752;6.094;2022-09-09T12:02:27;24.50;99.90
13848;DHT22;6994;49.752;6.094;2022-09-09T12:05:10;24.50;99.20
13848;DHT22;6994;49.752;6.094;2022-09-09T12:10:26;24.50;98.60
13848;DHT22;6994;49.752;6.094;2022-09-09T12:12:51;24.40;99.30
13848;DHT22;6994;49.752;6.094;2022-09-09T12:15:21;24.20;98.40
13848;DHT22;6994;49.752;6.094;2022-09-09T12:17:49;23.90;98.40
13848;DHT22;6994;49.752;6.094;2022-09-09T12:20:37;23.50;99.20
13848;DHT22;6994;49.752;6.094;2022-09-09T12:28:56;21.40;99.90
13848;DHT22;6994;49.752;6.094;2022-09-09T12:31:41;20.50;99.90
13848;DHT22;6994;49.752;6.094;2022-09-09T12:37:17;19.30;99.90
13848;DHT22;6994;49.752;6.094;2022-09-09T12:39:47;19.20;99.90
13848;DHT22;6994;49.752;6.094;2022-09-09T12:42:19;19.50;99.90
13848;DHT22;6994;49.752;6.094;2022-09-09T12:44:55;20.20;99.90
13848;DHT22;6994;49.752;6.094;2022-09-09T12:47:26;21.00;99.90
13848;DHT22;6994;49.752;6.094;2022-09-09T12:49:49;21.30;99.90
13848;DHT22;6994;49.752;6.094;2022-09-09T12:52:22;21.40;99.90
13848;DHT22;6994;49.752;6.094;2022-09-09T12:54:46;21.30;99.90
13848;DHT22;6994;49.752;6.094;2022-09-09T12:57:14;20.80;99.90
13848;DHT22;6994;49.752;6.094;2022-09-09T12:59:43;20.40;99.90
13848;DHT22;6994;49.752;6.094;2022-09-09T13:02:31;20.10;99.90
13848;DHT22;6994;49.752;6.094;2022-09-09T13:04:38;20.00;99.90
13848;DHT22;6994;49.752;6.094;2022-09-09T13:07:06;19.70;99.90
13848;DHT22;6994;49.752;6.094;2022-09-09T13:09:34;19.40;99.90
13848;DHT22;6994;49.752;6.094;2022-09-09T13:12:02;19.20;99.90
13848;DHT22;6994;49.752;6.094;2022-09-09T13:14:30;18.90;99.90
13848;DHT22;6994;49.752;6.094;2022-09-09T13:16:59;18.60;99.90
13848;DHT22;6994;49.752;6.094;2022-09-09T13:19:26;18.60;99.90
13848;DHT22;6994;49.752;6.094;2022-09-09T13:21:53;18.30;99.90
13848;DHT22;6994;49.752;6.094;2022-09-09T13:24:30;17.90;99.90
13848;DHT22;6994;49.752;6.094;2022-09-09T13:26:57;17.60;99.90
13848;DHT22;6994;49.752;6.094;2022-09-09T13:29:23;17.30;99.90
13848;DHT22;6994;49.752;6.094;2022-09-09T13:31:50;17.20;99.90
13848;DHT22;6994;49.752;6.094;2022-09-09T13:34:28;17.20;99.90
13848;DHT22;6994;49.752;6.094;2022-09-09T13:37:01;17.10;99.90
13848;DHT22;6994;49.752;6.094;2022-09-09T13:39:27;16.80;99.90
13848;DHT22;6994;49.752;6.094;2022-09-09T13:41:54;16.60;99.90
13848;DHT22;6994;49.752;6.094;2022-09-09T13:44:33;16.40;99.90
13848;DHT22;6994;49.752;6.094;2022-09-09T13:47:04;16.40;99.90
13848;DHT22;6994;49.752;6.094;2022-09-09T13:49:31;16.30;99.90
13848;DHT22;6994;49.752;6.094;2022-09-09T13:52:11;16.20;99.90
13848;DHT22;6994;49.752;6.094;2022-09-09T13:54:38;16.30;99.90
13848;DHT22;6994;49.752;6.094;2022-09-09T13:57:16;16.30;99.90
13848;DHT22;6994;49.752;6.094;2022-09-09T13:59:42;16.30;99.90
13848;DHT22;6994;49.752;6.094;2022-09-09T14:02:10;16.60;99.90
13848;DHT22;6994;49.752;6.094;2022-09-09T14:04:38;16.50;99.90
13848;DHT22;6994;49.752;6.094;2022-09-09T14:07:05;16.50;99.90
13848;DHT22;6994;49.752;6.094;2022-09-09T14:09:32;16.50;99.90
13848;DHT22;6994;49.752;6.094;2022-09-09T14:12:00;16.60;99.90
13848;DHT22;6994;49.752;6.094;2022-09-09T14:14:27;16.60;99.90
13848;DHT22;6994;49.752;6.094;2022-09-09T14:16:54;16.60;99.90
13848;DHT22;6994;49.752;6.094;2022-09-09T14:19:21;16.90;99.90
13848;DHT22;6994;49.752;6.094;2022-09-09T14:21:48;17.00;99.90
13848;DHT22;6994;49.752;6.094;2022-09-09T14:24:16;17.20;99.90
13848;DHT22;6994;49.752;6.094;2022-09-09T14:26:44;17.20;99.90
13848;DHT22;6994;49.752;6.094;2022-09-09T14:29:12;17.60;99.90
13848;DHT22;6994;49.752;6.094;2022-09-09T14:31:40;17.70;99.90
13848;DHT22;6994;49.752;6.094;2022-09-09T14:34:08;17.80;99.90
13848;DHT22;6994;49.752;6.094;2022-09-09T14:36:37;18.00;99.90
13848;DHT22;6994;49.752;6.094;2022-09-09T14:39:04;18.00;99.90
13848;DHT22;6994;49.752;6.094;2022-09-09T14:41:32;18.00;99.90
13848;DHT22;6994;49.752;6.094;2022-09-09T14:43:59;18.00;99.90
13848;DHT22;6994;49.752;6.094;2022-09-09T14:46:27;18.10;99.90
13848;DHT22;6994;49.752;6.094;2022-09-09T14:48:54;18.20;99.90
13848;DHT22;6994;49.752;6.094;2022-09-09T14:51:24;18.30;99.90
13848;DHT22;6994;49.752;6.094;2022-09-09T14:53:55;18.30;99.90
13848;DHT22;6994;49.752;6.094;2022-09-09T14:56:22;18.30;99.90
13848;DHT22;6994;49.752;6.094;2022-09-09T14:58:48;18.30;99.90
13848;DHT22;6994;49.752;6.094;2022-09-09T15:01:16;18.20;99.90
13848;DHT22;6994;49.752;6.094;2022-09-09T15:03:47;18.10;99.90
13848;DHT22;6994;49.752;6.094;2022-09-09T15:06:11;18.30;99.90
13848;DHT22;6994;49.752;6.094;2022-09-09T15:08:38;18.10;99.90
13848;DHT22;6994;49.752;6.094;2022-09-09T15:11:05;18.00;99.90
13848;DHT22;6994;49.752;6.094;2022-09-09T15:13:31;18.00;99.90
13848;DHT22;6994;49.752;6.094;2022-09-09T15:16:12;17.90;99.90
13848;DHT22;6994;49.752;6.094;2022-09-09T15:18:38;17.80;99.90
13848;DHT22;6994;49.752;6.094;2022-09-09T15:21:12;17.70;99.90
13848;DHT22;6994;49.752;6.094;2022-09-09T15:23:39;17.50;99.90
13848;DHT22;6994;49.752;6.094;2022-09-09T15:26:06;17.20;99.90
13848;DHT22;6994;49.752;6.094;2022-09-09T15:28:34;17.20;99.90
13848;DHT22;6994;49.752;6.094;2022-09-09T15:31:00;16.90;99.90
13848;DHT22;6994;49.752;6.094;2022-09-09T15:33:27;16.90;99.90
13848;DHT22;6994;49.752;6.094;2022-09-09T15:35:55;16.70;99.90
13848;DHT22;6994;49.752;6.094;2022-09-09T15:38:22;16.50;99.90
13848;DHT22;6994;49.752;6.094;2022-09-09T15:40:55;16.30;99.90
13848;DHT22;6994;49.752;6.094;2022-09-09T15:43:22;16.10;99.90
13848;DHT22;6994;49.752;6.094;2022-09-09T15:45:52;16.00;99.90
13848;DHT22;6994;49.752;6.094;2022-09-09T15:48:17;15.80;99.90
13848;DHT22;6994;49.752;6.094;2022-09-09T15:50:45;15.90;99.90
13848;DHT22;6994;49.752;6.094;2022-09-09T15:53:12;15.90;99.90
13848;DHT22;6994;49.752;6.094;2022-09-09T15:55:39;16.00;99.90
13848;DHT22;6994;49.752;6.094;2022-09-09T15:58:07;16.10;99.90
13848;DHT22;6994;49.752;6.094;2022-09-09T16:00:34;16.10;99.90
13848;DHT22;6994;49.752;6.094;2022-09-09T16:03:01;16.10;99.90
13848;DHT22;6994;49.752;6.094;2022-09-09T16:05:28;16.10;99.90
13848;DHT22;6994;49.752;6.094;2022-09-09T16:07:55;16.20;99.90
13848;DHT22;6994;49.752;6.094;2022-09-09T16:10:23;16.30;99.90
13848;DHT22;6994;49.752;6.094;2022-09-09T16:12:50;16.40;99.90
13848;DHT22;6994;49.752;6.094;2022-09-09T16:15:17;16.50;99.90
13848;DHT22;6994;49.752;6.094;2022-09-09T16:17:44;16.90;99.90
13848;DHT22;6994;49.752;6.094;2022-09-09T16:20:12;17.30;99.90
13848;DHT22;6994;49.752;6.094;2022-09-09T16:22:40;17.50;99.90
13848;DHT22;6994;49.752;6.094;2022-09-09T16:25:08;17.70;99.90
13848;DHT22;6994;49.752;6.094;2022-09-09T16:27:35;17.70;99.90
13848;DHT22;6994;49.752;6.094;2022-09-09T16:30:03;17.80;99.90
13848;DHT22;6994;49.752;6.094;2022-09-09T16:32:30;17.90;99.90
13848;DHT22;6994;49.752;6.094;2022-09-09T16:34:57;17.90;99.90
13848;DHT22;6994;49.752;6.094;2022-09-09T16:37:24;17.90;99.90
13848;DHT22;6994;49.752;6.094;2022-09-09T16:39:51;18.20;99.90
13848;DHT22;6994;49.752;6.094;2022-09-09T16:42:19;18.20;99.90
13848;DHT22;6994;49.752;6.094;2022-09-09T16:44:46;18.10;99.90
13848;DHT22;6994;49.752;6.094;2022-09-09T16:47:13;18.10;99.90
13848;DHT22;6994;49.752;6.094;2022-09-09T16:49:40;18.00;99.90
13848;DHT22;6994;49.752;6.094;2022-09-09T16:52:07;18.00;99.90
13848;DHT22;6994;49.752;6.094;2022-09-09T16:54:35;17.80;99.90
13848;DHT22;6994;49.752;6.094;2022-09-09T16:57:02;17.70;99.90
13848;DHT22;6994;49.752;6.094;2022-09-09T16:59:29;17.60;99.90
13848;DHT22;6994;49.752;6.094;2022-09-09T17:01:56;17.50;99.90
13848;DHT22;6994;49.752;6.094;2022-09-09T17:04:26;17.40;99.90
13848;DHT22;6994;49.752;6.094;2022-09-09T17:06:54;17.40;99.90
13848;DHT22;6994;49.752;6.094;2022-09-09T17:09:22;17.30;99.90
13848;DHT22;6994;49.752;6.094;2022-09-09T17:11:50;17.30;99.90
13848;DHT22;6994;49.752;6.094;2022-09-09T17:14:18;17.20;99.90
13848;DHT22;6994;49.752;6.094;2022-09-09T17:16:45;17.20;99.90
13848;DHT22;6994;49.752;6.094;2022-09-09T17:19:13;17.20;99.90
13848;DHT22;6994;49.752;6.094;2022-09-09T17:21:40;17.20;99.90